• Join FlightAware (Why Join?)
  • Login
  • US Flag 
10:42AM EST


 

Airport Tracker/Info


-or-


 

Live Flight TrackerFlight Track Log ✈ ERR707 ✈ 15-Oct-2013 ✈ PAFA / FAI - PANC

Flight Track Log - Related Links

Times and Time Zones

All times are in EDT time to prevent confusion due to time zone crossing. See the ERR707 flight status page for this flight to view local times or setup timezone preferences in your user account.

Time Position Orientation Groundspeed Altitude Reporting Facility
EDT Latitude Longitude Course Direction KTS MPH feet Rate Location/Type
10:55PM 64.8667 -147.8667 234° Southwest 170 196 3,800  Level Anchorage Center
10:56PM 64.8333 -147.9167 213° Southwest 160 184 5,200 1,320 Climbing Anchorage Center
10:57PM 64.8000 -148.0000 227° Southwest 160 184 6,500 1,320 Climbing Anchorage Center
10:58PM 64.7500 -148.0667 210° Southwest 170 196 7,900 1,260 Climbing Anchorage Center
10:59PM 64.5138 -148.0560 216° Southwest  Level Estimated
10:59PM 64.7167 -148.1167 213° Southwest 160 184 9,100  Level Anchorage Center
11:00PM 64.4833 -148.1545 234° Southwest  Level FlightAware Approximate
11:00PM 64.6833 -148.2000 227° Southwest 170 196 10,300  Level Anchorage Center
11:01PM 64.6500 -148.2667 221° Southwest 180 207 11,300 1,020 Climbing Anchorage Center
11:02PM 64.6167 -148.3333 221° Southwest 170 196 12,400 1,020 Climbing Anchorage Center
11:03PM 64.5667 -148.4000 210° Southwest 170 196 13,400 960 Climbing Anchorage Center
11:04PM 64.5333 -148.4500 213° Southwest 190 219 14,400 900 Climbing Anchorage Center
11:05PM 64.4833 -148.4833 196° South 190 219 15,200 840 Climbing Anchorage Center
11:06PM 64.4333 -148.5167 196° South 180 207 16,100 720 Climbing Anchorage Center
11:07PM 64.3833 -148.5667 203° Southwest 180 207 16,700 840 Climbing Anchorage Center
11:08PM 64.3333 -148.6000 196° South 180 207 17,800 900 Climbing Anchorage Center
11:09PM 64.3000 -148.6333 203° Southwest 170 196 18,600 720 Climbing Anchorage Center
11:10PM 64.2500 -148.6667 196° South 180 207 19,300 780 Climbing Anchorage Center
11:11PM 64.2000 -148.7000 196° South 160 184 20,200 840 Climbing Anchorage Center
11:12PM 64.1500 -148.7333 196° South 170 196 21,000 360 Climbing Anchorage Center
11:13PM 64.1000 -148.7667 196° South 190 219 21,000  Level Anchorage Center
11:14PM 64.0500 -148.8167 204° Southwest 200 230 21,000  Level Anchorage Center
11:15PM 64.0000 -148.8500 196° South 190 219 21,000  Level Anchorage Center
11:16PM 63.9500 -148.8833 196° South 200 230 21,000  Level Anchorage Center
11:17PM 63.9000 -148.9333 204° Southwest 210 242 21,000  Level Anchorage Center
11:18PM 63.8333 -148.9667 192° South 210 242 21,000  Level Anchorage Center
11:19PM 63.7833 -149.0167 204° Southwest 210 242 21,000  Level Anchorage Center
11:20PM 63.7333 -149.0500 196° South 200 230 21,000  Level Anchorage Center
11:21PM 63.6833 -149.0833 196° South 200 230 21,000  Level Anchorage Center
11:22PM 63.6333 -149.1167 196° South 200 230 21,000  Level Anchorage Center
11:23PM 63.5667 -149.1667 198° South 210 242 21,000  Level Anchorage Center
11:24PM 63.5167 -149.2000 197° South 190 219 21,000  Level Anchorage Center
11:25PM 63.4500 -149.2500 199° South 200 230 21,000  Level Anchorage Center
11:26PM 63.4000 -149.2833 197° South 210 242 21,000  Level Anchorage Center
11:27PM 63.3500 -149.3167 197° South 200 230 21,000  Level Anchorage Center
11:28PM 63.3000 -149.3667 204° Southwest 200 230 21,000  Level Anchorage Center
11:29PM 63.2500 -149.4000 197° South 200 230 21,000  Level Anchorage Center
11:30PM 63.2000 -149.4333 197° South 200 230 21,000  Level Anchorage Center
11:31PM 63.1333 -149.4833 199° South 190 219 21,000  Level Anchorage Center
11:32PM 63.0833 -149.5167 197° South 190 219 21,000  Level Anchorage Center
11:33PM 63.0333 -149.5500 197° South 190 219 21,000  Level Anchorage Center
11:34PM 62.9833 -149.5833 197° South 180 207 21,000  Level Anchorage Center
11:35PM 62.9500 -149.6167 204° Southwest 180 207 21,000  Level Anchorage Center
11:36PM 62.9000 -149.6500 197° South 180 207 21,000  Level Anchorage Center
11:37PM 62.8500 -149.6667 189° South 170 196 21,000  Level Anchorage Center
11:38PM 62.8000 -149.7167 205° Southwest 180 207 21,000  Level Anchorage Center
11:39PM 62.7500 -149.7500 197° South 180 207 21,000  Level Anchorage Center
11:40PM 62.7000 -149.7667 189° South 190 219 21,000  Level Anchorage Center
11:41PM 62.6500 -149.8000 197° South 180 207 21,000  Level Anchorage Center
11:42PM 62.6000 -149.8500 205° Southwest 170 196 21,000  Level Anchorage Center
11:43PM 62.5500 -149.8667 189° South 190 219 21,000  Level Anchorage Center
11:44PM 62.5000 -149.9000 197° South 180 207 21,000  Level Anchorage Center
11:45PM 62.4500 -149.9333 197° South 170 196 21,000  Level Anchorage Center
11:46PM 62.4000 -149.9667 197° South 190 219 21,000  Level Anchorage Center
11:47PM 62.3500 -150.0000 197° South 180 207 21,000 -420 Level Anchorage Center
11:48PM 62.3000 -150.0333 197° South 200 230 20,200 -840 Descending Anchorage Center
11:49PM 62.2500 -150.0833 205° Southwest 210 242 19,400 -780 Descending Anchorage Center
11:50PM 62.1833 -150.1167 193° South 220 253 18,700 -840 Descending Anchorage Center
11:51PM 62.1333 -150.1500 197° South 220 253 17,800 -900 Descending Anchorage Center
11:52PM 62.0667 -150.1833 193° South 220 253 17,000 -900 Descending Anchorage Center
11:53PM 62.0000 -150.2333 199° South 220 253 16,000 -1,020 Descending Anchorage Center
11:54PM 61.9500 -150.2667 197° South 220 253 15,000 -1,020 Descending Anchorage Center
11:56PM 61.8735 -150.3177 198° South  Level FlightAware Approximate
12:03AM 61.5247 -150.3256 157° South  Level FlightAware Approximate
12:04AM 61.4760 -150.2822 157° South  Level FlightAware Approximate
12:05AM 61.4274 -150.2390 157° South  Level FlightAware Approximate
12:06AM 61.3788 -150.1954 154° Southeast  Level FlightAware Approximate
12:07AM 61.3316 -150.1465 136° Southeast  Level FlightAware Approximate
12:08AM 61.2866 -150.0926 159° South  Level FlightAware Approximate
12:09AM 61.2373 -150.0531 159° South  Level FlightAware Approximate
12:10AM 61.1895 -150.0061 154° Southeast  Level FlightAware Approximate
12:11AM 61.1741 -149.9982 154° Southeast  Level Estimated
12:12AM 61.1741 -149.9982 154° Southeast  Level Estimated
12:13AM 61.1741 -149.9982 154° Southeast  Level Estimated
12:14AM 61.1741 -149.9982 154° Southeast  Level Estimated
12:15AM 61.1741 -149.9982 154° Southeast  Level Estimated
12:16AM 61.1741 -149.9982 154° Southeast  Level Estimated
12:17AM 61.1741 -149.9982 154° Southeast  Level Estimated
12:18AM 61.1741 -149.9982 154° Southeast  Level Estimated
12:19AM 61.1741 -149.9982 154° Southeast  Level Estimated
12:20AM 61.1741 -149.9982 154° Southeast  Level Estimated
12:21AM 61.1741 -149.9982 154° Southeast  Level Estimated
12:22AM 61.1741 -149.9982 154° Southeast  Level Estimated